sensor_id;sensor_type;location;lat;lon;timestamp;temperature;humidity
19864;DHT22;10094;48.820;9.226;2023-09-19T06:13:11;19.20;99.90
19864;DHT22;10094;48.820;9.226;2023-09-19T06:19:54;18.00;99.90
19864;DHT22;10094;48.820;9.226;2023-09-19T06:26:37;17.50;99.90
19864;DHT22;10094;48.820;9.226;2023-09-19T06:33:19;17.40;99.90
19864;DHT22;10094;48.820;9.226;2023-09-19T06:40:03;17.60;99.90
19864;DHT22;10094;48.820;9.226;2023-09-19T06:46:47;17.80;99.90
19864;DHT22;10094;48.820;9.226;2023-09-19T06:53:32;18.40;99.90
19864;DHT22;10094;48.820;9.226;2023-09-19T07:00:15;19.10;99.90
19864;DHT22;10094;48.820;9.226;2023-09-19T07:06:57;19.60;99.90
19864;DHT22;10094;48.820;9.226;2023-09-19T07:13:38;22.00;99.90
19864;DHT22;10094;48.820;9.226;2023-09-19T07:20:21;22.80;99.90
19864;DHT22;10094;48.820;9.226;2023-09-19T07:27:03;23.30;99.90
19864;DHT22;10094;48.820;9.226;2023-09-19T07:33:47;22.60;99.90
19864;DHT22;10094;48.820;9.226;2023-09-19T07:40:29;22.40;99.90
19864;DHT22;10094;48.820;9.226;2023-09-19T07:47:10;23.40;99.90
19864;DHT22;10094;48.820;9.226;2023-09-19T07:53:53;23.90;99.90
19864;DHT22;10094;48.820;9.226;2023-09-19T08:00:36;25.60;99.90
19864;DHT22;10094;48.820;9.226;2023-09-19T08:07:20;26.40;98.40
19864;DHT22;10094;48.820;9.226;2023-09-19T08:14:02;26.40;96.60
19864;DHT22;10094;48.820;9.226;2023-09-19T08:20:50;26.50;94.80
19864;DHT22;10094;48.820;9.226;2023-09-19T08:27:32;27.90;93.20
19864;DHT22;10094;48.820;9.226;2023-09-19T08:34:14;28.70;92.50
19864;DHT22;10094;48.820;9.226;2023-09-19T08:41:00;29.20;91.80
19864;DHT22;10094;48.820;9.226;2023-09-19T08:47:51;29.90;90.30
19864;DHT22;10094;48.820;9.226;2023-09-19T08:54:38;29.20;90.50
19864;DHT22;10094;48.820;9.226;2023-09-19T09:01:21;29.70;90.40
19864;DHT22;10094;48.820;9.226;2023-09-19T09:08:06;29.90;90.00
19864;DHT22;10094;48.820;9.226;2023-09-19T09:14:48;30.50;87.10
19864;DHT22;10094;48.820;9.226;2023-09-19T09:21:31;30.80;83.70
19864;DHT22;10094;48.820;9.226;2023-09-19T09:28:25;30.50;82.30
19864;DHT22;10094;48.820;9.226;2023-09-19T09:35:08;28.50;82.30
19864;DHT22;10094;48.820;9.226;2023-09-19T09:41:56;27.20;84.50
19864;DHT22;10094;48.820;9.226;2023-09-19T09:48:40;27.60;84.80
19864;DHT22;10094;48.820;9.226;2023-09-19T09:55:27;28.70;82.80
19864;DHT22;10094;48.820;9.226;2023-09-19T10:02:09;28.10;82.00
19864;DHT22;10094;48.820;9.226;2023-09-19T10:09:07;26.80;83.00
19864;DHT22;10094;48.820;9.226;2023-09-19T10:15:54;25.80;84.90
19864;DHT22;10094;48.820;9.226;2023-09-19T10:22:37;25.10;85.60
19864;DHT22;10094;48.820;9.226;2023-09-19T10:29:21;26.50;84.80
19864;DHT22;10094;48.820;9.226;2023-09-19T10:36:05;28.00;82.20
19864;DHT22;10094;48.820;9.226;2023-09-19T10:42:48;28.10;82.30
19864;DHT22;10094;48.820;9.226;2023-09-19T10:49:31;26.60;81.80
19864;DHT22;10094;48.820;9.226;2023-09-19T10:56:23;25.30;83.40
19864;DHT22;10094;48.820;9.226;2023-09-19T11:10:05;25.50;83.80
19864;DHT22;10094;48.820;9.226;2023-09-19T11:31:42;24.80;84.40
19864;DHT22;10094;48.820;9.226;2023-09-19T11:52:31;24.80;82.10
19864;DHT22;10094;48.820;9.226;2023-09-19T11:59:21;24.90;82.60
19864;DHT22;10094;48.820;9.226;2023-09-19T12:06:11;25.00;82.90
19864;DHT22;10094;48.820;9.226;2023-09-19T12:12:57;25.50;82.00
19864;DHT22;10094;48.820;9.226;2023-09-19T12:19:55;25.60;81.50
19864;DHT22;10094;48.820;9.226;2023-09-19T12:26:43;25.10;81.80
19864;DHT22;10094;48.820;9.226;2023-09-19T12:33:26;24.80;82.90
19864;DHT22;10094;48.820;9.226;2023-09-19T12:40:09;24.50;83.40
19864;DHT22;10094;48.820;9.226;2023-09-19T12:47:15;24.70;84.50
19864;DHT22;10094;48.820;9.226;2023-09-19T12:53:59;25.40;82.50
19864;DHT22;10094;48.820;9.226;2023-09-19T13:00:43;25.10;83.20
19864;DHT22;10094;48.820;9.226;2023-09-19T13:07:45;24.90;83.00
19864;DHT22;10094;48.820;9.226;2023-09-19T13:14:31;25.30;81.90
19864;DHT22;10094;48.820;9.226;2023-09-19T13:21:14;25.60;82.50
19864;DHT22;10094;48.820;9.226;2023-09-19T13:28:05;25.60;82.20
19864;DHT22;10094;48.820;9.226;2023-09-19T13:34:47;25.80;81.90
19864;DHT22;10094;48.820;9.226;2023-09-19T13:41:30;25.40;82.70
19864;DHT22;10094;48.820;9.226;2023-09-19T13:48:14;25.20;82.90
19864;DHT22;10094;48.820;9.226;2023-09-19T13:54:56;25.30;83.20
19864;DHT22;10094;48.820;9.226;2023-09-19T14:01:38;24.80;83.20
19864;DHT22;10094;48.820;9.226;2023-09-19T14:08:21;24.80;83.80
19864;DHT22;10094;48.820;9.226;2023-09-19T14:15:05;24.50;84.30
19864;DHT22;10094;48.820;9.226;2023-09-19T14:21:47;24.30;85.00
19864;DHT22;10094;48.820;9.226;2023-09-19T14:28:29;24.80;84.80
19864;DHT22;10094;48.820;9.226;2023-09-19T14:35:11;25.40;84.50
19864;DHT22;10094;48.820;9.226;2023-09-19T14:41:56;24.80;84.40
19864;DHT22;10094;48.820;9.226;2023-09-19T14:48:39;24.60;83.50
19864;DHT22;10094;48.820;9.226;2023-09-19T14:55:22;25.00;84.10
19864;DHT22;10094;48.820;9.226;2023-09-19T15:02:05;24.70;83.50
19864;DHT22;10094;48.820;9.226;2023-09-19T15:08:48;24.90;82.90
19864;DHT22;10094;48.820;9.226;2023-09-19T15:15:31;24.80;82.50
19864;DHT22;10094;48.820;9.226;2023-09-19T15:22:13;24.80;81.70
19864;DHT22;10094;48.820;9.226;2023-09-19T15:28:56;24.70;82.00
19864;DHT22;10094;48.820;9.226;2023-09-19T15:35:38;24.60;81.70
19864;DHT22;10094;48.820;9.226;2023-09-19T15:42:20;24.60;81.90
19864;DHT22;10094;48.820;9.226;2023-09-19T15:49:02;23.70;81.30
19864;DHT22;10094;48.820;9.226;2023-09-19T15:55:44;24.20;82.20
19864;DHT22;10094;48.820;9.226;2023-09-19T16:02:26;24.00;82.50
19864;DHT22;10094;48.820;9.226;2023-09-19T16:09:10;24.10;83.40
19864;DHT22;10094;48.820;9.226;2023-09-19T16:15:51;23.80;83.50
19864;DHT22;10094;48.820;9.226;2023-09-19T16:22:34;23.80;84.00
19864;DHT22;10094;48.820;9.226;2023-09-19T16:29:15;23.60;84.10
19864;DHT22;10094;48.820;9.226;2023-09-19T16:35:57;23.50;84.70
19864;DHT22;10094;48.820;9.226;2023-09-19T16:42:40;23.40;84.40
19864;DHT22;10094;48.820;9.226;2023-09-19T16:49:22;23.50;84.80
19864;DHT22;10094;48.820;9.226;2023-09-19T16:56:10;23.70;85.60
19864;DHT22;10094;48.820;9.226;2023-09-19T17:02:54;23.20;85.60
19864;DHT22;10094;48.820;9.226;2023-09-19T17:09:41;23.50;86.30
19864;DHT22;10094;48.820;9.226;2023-09-19T17:16:22;23.00;86.80
19864;DHT22;10094;48.820;9.226;2023-09-19T17:23:06;22.90;87.30
19864;DHT22;10094;48.820;9.226;2023-09-19T17:29:48;22.70;88.60
19864;DHT22;10094;48.820;9.226;2023-09-19T17:36:30;22.70;89.90
19864;DHT22;10094;48.820;9.226;2023-09-19T17:43:13;22.40;90.30
19864;DHT22;10094;48.820;9.226;2023-09-19T17:49:55;22.10;91.10
19864;DHT22;10094;48.820;9.226;2023-09-19T17:56:38;22.30;92.50
19864;DHT22;10094;48.820;9.226;2023-09-19T18:03:21;21.80;92.90
19864;DHT22;10094;48.820;9.226;2023-09-19T18:10:07;21.60;93.30
19864;DHT22;10094;48.820;9.226;2023-09-19T18:16:49;21.50;94.60
19864;DHT22;10094;48.820;9.226;2023-09-19T18:37:07;21.30;96.60
19864;DHT22;10094;48.820;9.226;2023-09-19T18:43:52;20.90;99.90
19864;DHT22;10094;48.820;9.226;2023-09-19T18:50:37;20.40;99.90
19864;DHT22;10094;48.820;9.226;2023-09-19T18:57:18;21.10;99.90
19864;DHT22;10094;48.820;9.226;2023-09-19T19:04:01;19.80;99.90
19864;DHT22;10094;48.820;9.226;2023-09-19T19:10:42;19.90;99.90
19864;DHT22;10094;48.820;9.226;2023-09-19T19:17:24;19.70;99.90
19864;DHT22;10094;48.820;9.226;2023-09-19T19:24:06;19.30;99.90
19864;DHT22;10094;48.820;9.226;2023-09-19T19:30:48;19.40;99.90
19864;DHT22;10094;48.820;9.226;2023-09-19T19:37:31;19.30;99.90
19864;DHT22;10094;48.820;9.226;2023-09-19T19:44:13;19.30;99.90
19864;DHT22;10094;48.820;9.226;2023-09-19T19:50:55;19.10;99.90
19864;DHT22;10094;48.820;9.226;2023-09-19T19:57:37;18.90;99.90
19864;DHT22;10094;48.820;9.226;2023-09-19T20:04:18;18.60;99.90
19864;DHT22;10094;48.820;9.226;2023-09-19T20:11:04;18.50;99.90
19864;DHT22;10094;48.820;9.226;2023-09-19T20:17:46;18.30;99.90
19864;DHT22;10094;48.820;9.226;2023-09-19T20:24:28;18.20;99.90
19864;DHT22;10094;48.820;9.226;2023-09-19T20:31:10;17.90;99.90
19864;DHT22;10094;48.820;9.226;2023-09-19T20:37:52;18.00;99.90
19864;DHT22;10094;48.820;9.226;2023-09-19T20:44:36;18.00;99.90
19864;DHT22;10094;48.820;9.226;2023-09-19T20:51:18;17.80;99.90
19864;DHT22;10094;48.820;9.226;2023-09-19T20:58:06;17.80;99.90
19864;DHT22;10094;48.820;9.226;2023-09-19T21:04:48;17.70;99.90
19864;DHT22;10094;48.820;9.226;2023-09-19T21:11:31;17.40;99.90
19864;DHT22;10094;48.820;9.226;2023-09-19T21:18:13;17.30;99.90
19864;DHT22;10094;48.820;9.226;2023-09-19T21:24:55;17.50;99.90
19864;DHT22;10094;48.820;9.226;2023-09-19T21:31:37;17.50;99.90
19864;DHT22;10094;48.820;9.226;2023-09-19T21:38:18;17.40;99.90
19864;DHT22;10094;48.820;9.226;2023-09-19T21:45:01;17.50;99.90
19864;DHT22;10094;48.820;9.226;2023-09-19T21:51:42;17.50;99.90
19864;DHT22;10094;48.820;9.226;2023-09-19T21:58:24;17.40;99.90
19864;DHT22;10094;48.820;9.226;2023-09-19T22:05:06;17.20;99.90
19864;DHT22;10094;48.820;9.226;2023-09-19T22:11:49;17.20;99.90
19864;DHT22;10094;48.820;9.226;2023-09-19T22:18:32;17.00;99.90
19864;DHT22;10094;48.820;9.226;2023-09-19T22:25:15;16.90;99.90
19864;DHT22;10094;48.820;9.226;2023-09-19T22:38:41;16.90;99.90
19864;DHT22;10094;48.820;9.226;2023-09-19T22:45:23;16.70;99.90
19864;DHT22;10094;48.820;9.226;2023-09-19T22:52:08;16.60;99.90
19864;DHT22;10094;48.820;9.226;2023-09-19T22:58:50;16.60;99.90
19864;DHT22;10094;48.820;9.226;2023-09-19T23:05:36;16.70;99.90
19864;DHT22;10094;48.820;9.226;2023-09-19T23:12:19;16.50;99.90
19864;DHT22;10094;48.820;9.226;2023-09-19T23:19:05;16.40;99.90
19864;DHT22;10094;48.820;9.226;2023-09-19T23:25:56;16.40;99.90
19864;DHT22;10094;48.820;9.226;2023-09-19T23:32:38;16.20;99.90
19864;DHT22;10094;48.820;9.226;2023-09-19T23:39:20;16.40;99.90
19864;DHT22;10094;48.820;9.226;2023-09-19T23:46:02;16.40;99.90
19864;DHT22;10094;48.820;9.226;2023-09-19T23:52:46;16.40;99.90
19864;DHT22;10094;48.820;9.226;2023-09-19T23:59:28;16.10;99.90
